62.5°F
Current conditions from King Hill
Updated every 5 minutes
 
  Thursday August 28, 2014

Station Historical Data
Daily Summary for June 20, 2011 Units:  Both    English   Metric
« Previous Day
Next Day »
Daily Weekly Monthly Yearly Custom
  High: Low: Average:
Temperature: 75.3 °F /  24.1 °C 46.3 °F /  7.9 °C 61.1 °F /  16.2 °C
Dew Point: 59.0 °F /  15 °C 44.7 °F /  7.1 °C 51.2 °F /  10.7 °C
Humidity: 96% 42% 73%
Wind Speed: 5.0mph /  8km/h - 1.9mph /  3.1km/h
Wind Gust: 13.0mph /  20.9km/h - -
Wind- - SW
Pressure: 29.91 in /  1012.8 hPa 29.84 in /  1010.4 hPa -
Precipitation: 0.00 in /  0 mm    
Historical Graphs
 
 
Tabular Data for June 20, 2011
Time Temperature Dew Point Pressure Wind Wind Speed Wind Gust Humidity Daily Rainfall
00:00 53.6 °F /  12 °C 48.2 °F /  9 °C 29.84in /  1010.4hPa Calm   1.0mph /  1.6km/h 82% 0.00in /  0mm
00:05 53.1 °F /  11.7 °C 48.1 °F /  8.9 °C 29.84in /  1010.4hPa Calm     83% 0.00in /  0mm
00:10 52.7 °F /  11.5 °C 48.0 °F /  8.9 °C 29.84in /  1010.4hPa Calm     84% 0.00in /  0mm
00:15 52.4 °F /  11.3 °C 48.0 °F /  8.9 °C 29.84in /  1010.4hPa Calm   1.0mph /  1.6km/h 85% 0.00in /  0mm
00:20 52.1 °F /  11.2 °C 48.0 °F /  8.9 °C 29.84in /  1010.4hPa Calm   1.0mph /  1.6km/h 86% 0.00in /  0mm
00:25 51.8 °F /  11 °C 47.7 °F /  8.7 °C 29.84in /  1010.4hPa Calm     86% 0.00in /  0mm
00:30 51.5 °F /  10.8 °C 47.5 °F /  8.6 °C 29.85in /  1010.7hPa Calm     86% 0.00in /  0mm
00:35 51.1 °F /  10.6 °C 47.4 °F /  8.6 °C 29.85in /  1010.7hPa Calm     87% 0.00in /  0mm
00:40 51.0 °F /  10.6 °C 47.6 °F /  8.7 °C 29.85in /  1010.7hPa Calm   3.0mph /  4.8km/h 88% 0.00in /  0mm
00:45 51.2 °F /  10.7 °C 47.8 °F /  8.8 °C 29.85in /  1010.7hPa Calm   3.0mph /  4.8km/h 88% 0.00in /  0mm
00:55 50.9 °F /  10.5 °C 47.8 °F /  8.8 °C 29.85in /  1010.7hPa Calm   1.0mph /  1.6km/h 89% 0.00in /  0mm
01:00 50.9 °F /  10.5 °C 47.8 °F /  8.8 °C 29.85in /  1010.7hPa Calm   1.0mph /  1.6km/h 89% 0.00in /  0mm
01:05 50.8 °F /  10.4 °C 47.7 °F /  8.7 °C 29.85in /  1010.7hPa Calm     89% 0.00in /  0mm
01:10 50.6 °F /  10.3 °C 47.5 °F /  8.6 °C 29.85in /  1010.7hPa Calm   1.0mph /  1.6km/h 89% 0.00in /  0mm
01:15 50.5 °F /  10.3 °C 47.4 °F /  8.6 °C 29.85in /  1010.7hPa Calm   1.0mph /  1.6km/h 89% 0.00in /  0mm
01:20 50.4 °F /  10.2 °C 47.3 °F /  8.5 °C 29.86in /  1011.1hPa Calm     89% 0.00in /  0mm
01:25 50.2 °F /  10.1 °C 47.4 °F /  8.6 °C 29.86in /  1011.1hPa Calm     90% 0.00in /  0mm
01:30 50.1 °F /  10.1 °C 47.3 °F /  8.5 °C 29.85in /  1010.7hPa Calm     90% 0.00in /  0mm
01:40 50.3 °F /  10.2 °C 47.5 °F /  8.6 °C 29.85in /  1010.7hPa Calm     90% 0.00in /  0mm
01:45 50.4 °F /  10.2 °C 47.9 °F /  8.8 °C 29.86in /  1011.1hPa Calm     91% 0.00in /  0mm
01:50 50.5 °F /  10.3 °C 48.0 °F /  8.9 °C 29.86in /  1011.1hPa Calm     91% 0.00in /  0mm
01:55 50.5 °F /  10.3 °C 48.0 °F /  8.9 °C 29.86in /  1011.1hPa Calm     91% 0.00in /  0mm
02:00 50.2 °F /  10.1 °C 47.7 °F /  8.7 °C 29.86in /  1011.1hPa Calm     91% 0.00in /  0mm
02:05 49.9 °F /  9.9 °C 47.4 °F /  8.6 °C 29.86in /  1011.1hPa Calm     91% 0.00in /  0mm
02:10 49.6 °F /  9.8 °C 46.8 °F /  8.2 °C 29.86in /  1011.1hPa Calm     90% 0.00in /  0mm
02:15 49.4 °F /  9.7 °C 46.9 °F /  8.3 °C 29.86in /  1011.1hPa Calm     91% 0.00in /  0mm
02:20 49.1 °F /  9.5 °C 46.6 °F /  8.1 °C 29.86in /  1011.1hPa Calm     91% 0.00in /  0mm
02:25 48.8 °F /  9.3 °C 46.0 °F /  7.8 °C 29.86in /  1011.1hPa Calm     90% 0.00in /  0mm
02:30 48.7 °F /  9.3 °C 46.2 °F /  7.9 °C 29.86in /  1011.1hPa Calm     91% 0.00in /  0mm
02:40 48.2 °F /  9 °C 45.7 °F /  7.6 °C 29.86in /  1011.1hPa Calm     91% 0.00in /  0mm
02:45 48.1 °F /  8.9 °C 45.6 °F /  7.6 °C 29.86in /  1011.1hPa Calm   1.0mph /  1.6km/h 91% 0.00in /  0mm
02:55 48.1 °F /  8.9 °C 45.6 °F /  7.6 °C 29.86in /  1011.1hPa Calm     91% 0.00in /  0mm
03:00 47.9 °F /  8.8 °C 45.4 °F /  7.4 °C 29.86in /  1011.1hPa Calm     91% 0.00in /  0mm
03:05 47.9 °F /  8.8 °C 45.4 °F /  7.4 °C 29.86in /  1011.1hPa Calm     91% 0.00in /  0mm
03:10 47.9 °F /  8.8 °C 45.7 °F /  7.6 °C 29.86in /  1011.1hPa Calm     92% 0.00in /  0mm
03:15 47.9 °F /  8.8 °C 45.7 °F /  7.6 °C 29.86in /  1011.1hPa Calm     92% 0.00in /  0mm
03:20 48.0 °F /  8.9 °C 45.8 °F /  7.7 °C 29.86in /  1011.1hPa Calm   1.0mph /  1.6km/h 92% 0.00in /  0mm
03:25 47.9 °F /  8.8 °C 45.7 °F /  7.6 °C 29.86in /  1011.1hPa Calm   1.0mph /  1.6km/h 92% 0.00in /  0mm
03:30 47.6 °F /  8.7 °C 45.4 °F /  7.4 °C 29.86in /  1011.1hPa Calm     92% 0.00in /  0mm
03:40 47.6 °F /  8.7 °C 45.4 °F /  7.4 °C 29.86in /  1011.1hPa Calm     92% 0.00in /  0mm
03:45 47.6 °F /  8.7 °C 45.7 °F /  7.6 °C 29.86in /  1011.1hPa Calm     93% 0.00in /  0mm
03:50 47.6 °F /  8.7 °C 45.7 °F /  7.6 °C 29.87in /  1011.4hPa Calm     93% 0.00in /  0mm
03:55 47.5 °F /  8.6 °C 45.6 °F /  7.6 °C 29.87in /  1011.4hPa Calm     93% 0.00in /  0mm
04:00 47.5 °F /  8.6 °C 45.6 °F /  7.6 °C 29.87in /  1011.4hPa Calm     93% 0.00in /  0mm
04:05 47.6 °F /  8.7 °C 45.7 °F /  7.6 °C 29.87in /  1011.4hPa Calm     93% 0.00in /  0mm
04:10 47.5 °F /  8.6 °C 45.6 °F /  7.6 °C 29.87in /  1011.4hPa Calm     93% 0.00in /  0mm
04:15 47.4 °F /  8.6 °C 45.5 °F /  7.5 °C 29.87in /  1011.4hPa Calm     93% 0.00in /  0mm
04:20 47.2 °F /  8.4 °C 45.3 °F /  7.4 °C 29.87in /  1011.4hPa Calm     93% 0.00in /  0mm
04:25 47.1 °F /  8.4 °C 45.2 °F /  7.3 °C 29.87in /  1011.4hPa Calm     93% 0.00in /  0mm
04:30 47.1 °F /  8.4 °C 45.5 °F /  7.5 °C 29.87in /  1011.4hPa Calm     94% 0.00in /  0mm
04:35 47.0 °F /  8.3 °C 45.4 °F /  7.4 °C 29.87in /  1011.4hPa Calm     94% 0.00in /  0mm
04:40 47.0 °F /  8.3 °C 45.4 °F /  7.4 °C 29.87in /  1011.4hPa Calm     94% 0.00in /  0mm
04:45 46.9 °F /  8.3 °C 45.3 °F /  7.4 °C 29.86in /  1011.1hPa Calm     94% 0.00in /  0mm
04:50 46.8 °F /  8.2 °C 45.2 °F /  7.3 °C 29.87in /  1011.4hPa Calm     94% 0.00in /  0mm
04:55 46.8 °F /  8.2 °C 45.2 °F /  7.3 °C 29.87in /  1011.4hPa Calm     94% 0.00in /  0mm
05:00 46.6 °F /  8.1 °C 45.0 °F /  7.2 °C 29.87in /  1011.4hPa Calm     94% 0.00in /  0mm
05:05 46.5 °F /  8.1 °C 44.9 °F /  7.2 °C 29.87in /  1011.4hPa Calm     94% 0.00in /  0mm
05:10 46.4 °F /  8 °C 44.8 °F /  7.1 °C 29.87in /  1011.4hPa Calm     94% 0.00in /  0mm
05:15 46.5 °F /  8.1 °C 44.9 °F /  7.2 °C 29.87in /  1011.4hPa Calm     94% 0.00in /  0mm
05:20 46.4 °F /  8 °C 44.8 °F /  7.1 °C 29.87in /  1011.4hPa Calm     94% 0.00in /  0mm
05:25 46.4 °F /  8 °C 44.8 °F /  7.1 °C 29.87in /  1011.4hPa Calm     94% 0.00in /  0mm
05:30 46.3 °F /  7.9 °C 44.7 °F /  7.1 °C 29.88in /  1011.7hPa Calm     94% 0.00in /  0mm
05:35 46.4 °F /  8 °C 44.8 °F /  7.1 °C 29.88in /  1011.7hPa Calm     94% 0.00in /  0mm
05:40 46.4 °F /  8 °C 44.8 °F /  7.1 °C 29.88in /  1011.7hPa Calm     94% 0.00in /  0mm
05:45 46.4 °F /  8 °C 44.8 °F /  7.1 °C 29.88in /  1011.7hPa Calm     94% 0.00in /  0mm
05:50 46.4 °F /  8 °C 44.8 °F /  7.1 °C 29.88in /  1011.7hPa Calm     94% 0.00in /  0mm
05:55 46.5 °F /  8.1 °C 44.9 °F /  7.2 °C 29.88in /  1011.7hPa Calm     94% 0.00in /  0mm
06:00 46.7 °F /  8.2 °C 45.3 °F /  7.4 °C 29.88in /  1011.7hPa Calm     95% 0.00in /  0mm
06:05 46.8 °F /  8.2 °C 45.4 °F /  7.4 °C 29.88in /  1011.7hPa Calm     95% 0.00in /  0mm
06:10 47.0 °F /  8.3 °C 45.6 °F /  7.6 °C 29.88in /  1011.7hPa Calm     95% 0.00in /  0mm
06:15 47.2 °F /  8.4 °C 45.8 °F /  7.7 °C 29.88in /  1011.7hPa Calm     95% 0.00in /  0mm
06:20 47.5 °F /  8.6 °C 46.1 °F /  7.8 °C 29.88in /  1011.7hPa Calm     95% 0.00in /  0mm
06:25 48.1 °F /  8.9 °C 46.7 °F /  8.2 °C 29.89in /  1012.1hPa Calm     95% 0.00in /  0mm
06:30 48.4 °F /  9.1 °C 47.0 °F /  8.3 °C 29.89in /  1012.1hPa Calm     95% 0.00in /  0mm
06:35 48.7 °F /  9.3 °C 47.3 °F /  8.5 °C 29.89in /  1012.1hPa Calm     95% 0.00in /  0mm
06:40 49.2 °F /  9.6 °C 47.8 °F /  8.8 °C 29.89in /  1012.1hPa Calm     95% 0.00in /  0mm
06:45 49.5 °F /  9.7 °C 48.1 °F /  8.9 °C 29.89in /  1012.1hPa Calm     95% 0.00in /  0mm
06:50 50.0 °F /  10 °C 48.6 °F /  9.2 °C 29.89in /  1012.1hPa Calm     95% 0.00in /  0mm
07:00 51.0 °F /  10.6 °C 49.9 °F /  9.9 °C 29.89in /  1012.1hPa Calm     96% 0.00in /  0mm
07:05 51.5 °F /  10.8 °C 50.4 °F /  10.2 °C 29.89in /  1012.1hPa Calm     96% 0.00in /  0mm
07:10 52.5 °F /  11.4 °C 51.4 °F /  10.8 °C 29.89in /  1012.1hPa Calm     96% 0.00in /  0mm
07:15 53.6 °F /  12 °C 52.5 °F /  11.4 °C 29.90in /  1012.4hPa Calm     96% 0.00in /  0mm
07:20 54.4 °F /  12.4 °C 53.3 °F /  11.8 °C 29.90in /  1012.4hPa Calm     96% 0.00in /  0mm
07:25 54.4 °F /  12.4 °C 53.3 °F /  11.8 °C 29.90in /  1012.4hPa Calm     96% 0.00in /  0mm
07:30 54.6 °F /  12.6 °C 53.5 °F /  11.9 °C 29.90in /  1012.4hPa Calm     96% 0.00in /  0mm
07:35 55.1 °F /  12.8 °C 54.0 °F /  12.2 °C 29.90in /  1012.4hPa Calm     96% 0.00in /  0mm
07:40 55.6 °F /  13.1 °C 54.5 °F /  12.5 °C 29.91in /  1012.8hPa Calm     96% 0.00in /  0mm
07:45 55.6 °F /  13.1 °C 54.5 °F /  12.5 °C 29.90in /  1012.4hPa Calm     96% 0.00in /  0mm
07:50 55.8 °F /  13.2 °C 54.7 °F /  12.6 °C 29.90in /  1012.4hPa Calm     96% 0.00in /  0mm
07:55 56.0 °F /  13.3 °C 54.9 °F /  12.7 °C 29.90in /  1012.4hPa Calm     96% 0.00in /  0mm
08:00 56.4 °F /  13.6 °C 55.0 °F /  12.8 °C 29.90in /  1012.4hPa Calm     95% 0.00in /  0mm
08:05 57.1 °F /  13.9 °C 55.7 °F /  13.2 °C 29.90in /  1012.4hPa Calm     95% 0.00in /  0mm
08:10 57.5 °F /  14.2 °C 55.5 °F /  13.1 °C 29.90in /  1012.4hPa Calm     93% 0.00in /  0mm
08:15 57.8 °F /  14.3 °C 54.6 °F /  12.6 °C 29.90in /  1012.4hPa Calm     89% 0.00in /  0mm
08:20 59.0 °F /  15 °C 55.5 °F /  13.1 °C 29.90in /  1012.4hPa Calm     88% 0.00in /  0mm
08:25 60.2 °F /  15.7 °C 55.7 °F /  13.2 °C 29.90in /  1012.4hPa Calm     85% 0.00in /  0mm
08:30 61.7 °F /  16.5 °C 56.2 °F /  13.4 °C 29.90in /  1012.4hPa Calm     82% 0.00in /  0mm
08:40 64.0 °F /  17.8 °C 56.7 °F /  13.7 °C 29.91in /  1012.8hPa Calm   2.0mph /  3.2km/h 77% 0.00in /  0mm
08:45 64.2 °F /  17.9 °C 54.2 °F /  12.3 °C 29.91in /  1012.8hPa Calm   4.0mph /  6.4km/h 70% 0.00in /  0mm
08:50 64.6 °F /  18.1 °C 55.8 °F /  13.2 °C 29.91in /  1012.8hPa Calm   4.0mph /  6.4km/h 73% 0.00in /  0mm
08:55 65.1 °F /  18.4 °C 55.1 °F /  12.8 °C 29.91in /  1012.8hPa Calm   3.0mph /  4.8km/h 70% 0.00in /  0mm
09:00 65.8 °F /  18.8 °C 54.1 °F /  12.3 °C 29.91in /  1012.8hPa NNW 4.0mph /  6.4km/h 5.0mph /  8km/h 66% 0.00in /  0mm
09:05 65.8 °F /  18.8 °C 54.5 °F /  12.5 °C 29.91in /  1012.8hPa Calm   5.0mph /  8km/h 67% 0.00in /  0mm
09:10 66.0 °F /  18.9 °C 54.3 °F /  12.4 °C 29.91in /  1012.8hPa Calm   3.0mph /  4.8km/h 66% 0.00in /  0mm
09:15 66.5 °F /  19.2 °C 53.5 °F /  11.9 °C 29.90in /  1012.4hPa NNW 1.0mph /  1.6km/h 4.0mph /  6.4km/h 63% 0.00in /  0mm
09:20 66.0 °F /  18.9 °C 53.5 °F /  11.9 °C 29.90in /  1012.4hPa Calm   4.0mph /  6.4km/h 64% 0.00in /  0mm
09:25 65.8 °F /  18.8 °C 54.1 °F /  12.3 °C 29.90in /  1012.4hPa Calm   3.0mph /  4.8km/h 66% 0.00in /  0mm
09:30 66.1 °F /  18.9 °C 53.2 °F /  11.8 °C 29.90in /  1012.4hPa NNW 1.0mph /  1.6km/h 4.0mph /  6.4km/h 63% 0.00in /  0mm
09:35 66.5 °F /  19.2 °C 54.0 °F /  12.2 °C 29.90in /  1012.4hPa NW 4.0mph /  6.4km/h 6.0mph /  9.7km/h 64% 0.00in /  0mm
09:40 66.7 °F /  19.3 °C 54.1 °F /  12.3 °C 29.90in /  1012.4hPa Calm   6.0mph /  9.7km/h 64% 0.00in /  0mm
09:45 67.0 °F /  19.4 °C 53.1 °F /  11.7 °C 29.90in /  1012.4hPa Calm   5.0mph /  8km/h 61% 0.00in /  0mm
09:50 67.4 °F /  19.7 °C 55.2 °F /  12.9 °C 29.90in /  1012.4hPa Calm   4.0mph /  6.4km/h 65% 0.00in /  0mm
09:55 67.4 °F /  19.7 °C 53.9 °F /  12.2 °C 29.89in /  1012.1hPa Calm   4.0mph /  6.4km/h 62% 0.00in /  0mm
10:00 67.3 °F /  19.6 °C 54.7 °F /  12.6 °C 29.89in /  1012.1hPa NW 1.0mph /  1.6km/h 4.0mph /  6.4km/h 64% 0.00in /  0mm
10:05 67.3 °F /  19.6 °C 54.7 °F /  12.6 °C 29.89in /  1012.1hPa WNW 1.0mph /  1.6km/h 8.0mph /  12.9km/h 64% 0.00in /  0mm
10:10 67.8 °F /  19.9 °C 55.6 °F /  13.1 °C 29.89in /  1012.1hPa Calm   8.0mph /  12.9km/h 65% 0.00in /  0mm
10:15 68.0 °F /  20 °C 51.7 °F /  10.9 °C 29.89in /  1012.1hPa Calm   6.0mph /  9.7km/h 56% 0.00in /  0mm
10:20 68.5 °F /  20.3 °C 53.6 °F /  12 °C 29.89in /  1012.1hPa Calm   4.0mph /  6.4km/h 59% 0.00in /  0mm
10:25 68.9 °F /  20.5 °C 54.5 °F /  12.5 °C 29.89in /  1012.1hPa Calm   5.0mph /  8km/h 60% 0.00in /  0mm
10:30 69.1 °F /  20.6 °C 51.3 °F /  10.7 °C 29.89in /  1012.1hPa NNE 2.0mph /  3.2km/h 8.0mph /  12.9km/h 53% 0.00in /  0mm
10:35 69.1 °F /  20.6 °C 54.2 °F /  12.3 °C 29.89in /  1012.1hPa WNW 1.0mph /  1.6km/h 8.0mph /  12.9km/h 59% 0.00in /  0mm
10:40 69.2 °F /  20.7 °C 54.7 °F /  12.6 °C 29.90in /  1012.4hPa WNW 2.0mph /  3.2km/h 9.0mph /  14.5km/h 60% 0.00in /  0mm
10:45 68.6 °F /  20.3 °C 55.1 °F /  12.8 °C 29.90in /  1012.4hPa NW 1.0mph /  1.6km/h 9.0mph /  14.5km/h 62% 0.00in /  0mm
10:50 68.3 °F /  20.2 °C 52.5 °F /  11.4 °C 29.90in /  1012.4hPa WNW 4.0mph /  6.4km/h 9.0mph /  14.5km/h 57% 0.00in /  0mm
10:55 67.9 °F /  19.9 °C 52.6 °F /  11.4 °C 29.90in /  1012.4hPa Calm   9.0mph /  14.5km/h 58% 0.00in /  0mm
11:00 68.1 °F /  20.1 °C 53.2 °F /  11.8 °C 29.89in /  1012.1hPa WNW 1.0mph /  1.6km/h 7.0mph /  11.3km/h 59% 0.00in /  0mm
11:05 68.3 °F /  20.2 °C 53.0 °F /  11.7 °C 29.89in /  1012.1hPa NNE 1.0mph /  1.6km/h 6.0mph /  9.7km/h 58% 0.00in /  0mm
11:10 68.6 °F /  20.3 °C 54.6 °F /  12.6 °C 29.89in /  1012.1hPa NNW 1.0mph /  1.6km/h 6.0mph /  9.7km/h 61% 0.00in /  0mm
11:15 68.9 °F /  20.5 °C 55.4 °F /  13 °C 29.89in /  1012.1hPa WNW 2.0mph /  3.2km/h 7.0mph /  11.3km/h 62% 0.00in /  0mm
11:20 69.3 °F /  20.7 °C 55.3 °F /  12.9 °C 29.88in /  1011.7hPa WNW 2.0mph /  3.2km/h 8.0mph /  12.9km/h 61% 0.00in /  0mm
11:25 69.5 °F /  20.8 °C 54.1 °F /  12.3 °C 29.88in /  1011.7hPa WNW 5.0mph /  8km/h 9.0mph /  14.5km/h 58% 0.00in /  0mm
11:30 69.9 °F /  21.1 °C 55.9 °F /  13.3 °C 29.88in /  1011.7hPa NW 1.0mph /  1.6km/h 9.0mph /  14.5km/h 61% 0.00in /  0mm
11:35 70.0 °F /  21.1 °C 56.8 °F /  13.8 °C 29.88in /  1011.7hPa WNW 3.0mph /  4.8km/h 8.0mph /  12.9km/h 63% 0.00in /  0mm
11:40 70.0 °F /  21.1 °C 53.6 °F /  12 °C 29.88in /  1011.7hPa West 3.0mph /  4.8km/h 8.0mph /  12.9km/h 56% 0.00in /  0mm
11:45 69.9 °F /  21.1 °C 54.5 °F /  12.5 °C 29.88in /  1011.7hPa WNW 1.0mph /  1.6km/h 8.0mph /  12.9km/h 58% 0.00in /  0mm
11:50 70.2 °F /  21.2 °C 54.3 °F /  12.4 °C 29.88in /  1011.7hPa NW 1.0mph /  1.6km/h 10.0mph /  16.1km/h 57% 0.00in /  0mm
11:55 69.8 °F /  21 °C 52.9 °F /  11.6 °C 29.88in /  1011.7hPa WNW 4.0mph /  6.4km/h 10.0mph /  16.1km/h 55% 0.00in /  0mm
12:00 70.2 °F /  21.2 °C 54.7 °F /  12.6 °C 29.88in /  1011.7hPa WNW 2.0mph /  3.2km/h 9.0mph /  14.5km/h 58% 0.00in /  0mm
12:05 69.9 °F /  21.1 °C 51.5 °F /  10.8 °C 29.88in /  1011.7hPa NW 1.0mph /  1.6km/h 9.0mph /  14.5km/h 52% 0.00in /  0mm
12:10 69.4 °F /  20.8 °C 53.5 °F /  11.9 °C 29.88in /  1011.7hPa WNW 1.0mph /  1.6km/h 7.0mph /  11.3km/h 57% 0.00in /  0mm
12:15 69.9 °F /  21.1 °C 56.3 °F /  13.5 °C 29.88in /  1011.7hPa NE 1.0mph /  1.6km/h 6.0mph /  9.7km/h 62% 0.00in /  0mm
12:20 70.8 °F /  21.6 °C 53.9 °F /  12.2 °C 29.87in /  1011.4hPa ENE 1.0mph /  1.6km/h 6.0mph /  9.7km/h 55% 0.00in /  0mm
12:25 70.9 °F /  21.6 °C 54.9 °F /  12.7 °C 29.88in /  1011.7hPa NNE 1.0mph /  1.6km/h 8.0mph /  12.9km/h 57% 0.00in /  0mm
12:30 70.4 °F /  21.3 °C 54.5 °F /  12.5 °C 29.87in /  1011.4hPa NW 4.0mph /  6.4km/h 8.0mph /  12.9km/h 57% 0.00in /  0mm
12:35 70.3 °F /  21.3 °C 53.9 °F /  12.2 °C 29.88in /  1011.7hPa NW 1.0mph /  1.6km/h 7.0mph /  11.3km/h 56% 0.00in /  0mm
12:40 69.9 °F /  21.1 °C 52.5 °F /  11.4 °C 29.88in /  1011.7hPa NW 4.0mph /  6.4km/h 7.0mph /  11.3km/h 54% 0.00in /  0mm
12:45 70.1 °F /  21.2 °C 53.7 °F /  12.1 °C 29.88in /  1011.7hPa WNW 3.0mph /  4.8km/h 8.0mph /  12.9km/h 56% 0.00in /  0mm
12:50 70.4 °F /  21.3 °C 55.4 °F /  13 °C 29.88in /  1011.7hPa WNW 1.0mph /  1.6km/h 8.0mph /  12.9km/h 59% 0.00in /  0mm
12:55 70.9 °F /  21.6 °C 54.9 °F /  12.7 °C 29.87in /  1011.4hPa North 1.0mph /  1.6km/h 7.0mph /  11.3km/h 57% 0.00in /  0mm
13:00 71.2 °F /  21.8 °C 53.7 °F /  12.1 °C 29.87in /  1011.4hPa NW 2.0mph /  3.2km/h 10.0mph /  16.1km/h 54% 0.00in /  0mm
13:05 71.2 °F /  21.8 °C 55.7 °F /  13.2 °C 29.87in /  1011.4hPa Calm   10.0mph /  16.1km/h 58% 0.00in /  0mm
13:10 71.3 °F /  21.8 °C 55.8 °F /  13.2 °C 29.87in /  1011.4hPa NNW 2.0mph /  3.2km/h 8.0mph /  12.9km/h 58% 0.00in /  0mm
13:15 71.4 °F /  21.9 °C 54.4 °F /  12.4 °C 29.87in /  1011.4hPa WNW 2.0mph /  3.2km/h 8.0mph /  12.9km/h 55% 0.00in /  0mm
13:20 70.4 °F /  21.3 °C 54.9 °F /  12.7 °C 29.87in /  1011.4hPa NW 1.0mph /  1.6km/h 6.0mph /  9.7km/h 58% 0.00in /  0mm
13:25 69.7 °F /  20.9 °C 54.3 °F /  12.4 °C 29.87in /  1011.4hPa WNW 1.0mph /  1.6km/h 8.0mph /  12.9km/h 58% 0.00in /  0mm
13:30 70.1 °F /  21.2 °C 53.7 °F /  12.1 °C 29.87in /  1011.4hPa West 5.0mph /  8km/h 8.0mph /  12.9km/h 56% 0.00in /  0mm
13:35 70.6 °F /  21.4 °C 57.0 °F /  13.9 °C 29.88in /  1011.7hPa NW 1.0mph /  1.6km/h 9.0mph /  14.5km/h 62% 0.00in /  0mm
13:40 71.3 °F /  21.8 °C 56.7 °F /  13.7 °C 29.87in /  1011.4hPa West 2.0mph /  3.2km/h 11.0mph /  17.7km/h 60% 0.00in /  0mm
13:45 71.5 °F /  21.9 °C 53.5 °F /  11.9 °C 29.87in /  1011.4hPa WNW 1.0mph /  1.6km/h 11.0mph /  17.7km/h 53% 0.00in /  0mm
13:50 72.1 °F /  22.3 °C 54.6 °F /  12.6 °C 29.87in /  1011.4hPa NW 2.0mph /  3.2km/h 8.0mph /  12.9km/h 54% 0.00in /  0mm
13:55 72.4 °F /  22.4 °C 54.8 °F /  12.7 °C 29.87in /  1011.4hPa NW 4.0mph /  6.4km/h 8.0mph /  12.9km/h 54% 0.00in /  0mm
14:00 71.7 °F /  22.1 °C 52.1 °F /  11.2 °C 29.87in /  1011.4hPa NNE 1.0mph /  1.6km/h 8.0mph /  12.9km/h 50% 0.00in /  0mm
14:05 71.2 °F /  21.8 °C 54.2 °F /  12.3 °C 29.87in /  1011.4hPa NW 1.0mph /  1.6km/h 7.0mph /  11.3km/h 55% 0.00in /  0mm
14:10 71.3 °F /  21.8 °C 55.8 °F /  13.2 °C 29.87in /  1011.4hPa WNW 3.0mph /  4.8km/h 10.0mph /  16.1km/h 58% 0.00in /  0mm
14:15 72.1 °F /  22.3 °C 56.0 °F /  13.3 °C 29.87in /  1011.4hPa WNW 4.0mph /  6.4km/h 13.0mph /  20.9km/h 57% 0.00in /  0mm
14:20 72.6 °F /  22.6 °C 56.5 °F /  13.6 °C 29.87in /  1011.4hPa WNW 2.0mph /  3.2km/h 13.0mph /  20.9km/h 57% 0.00in /  0mm
14:25 72.8 °F /  22.7 °C 55.7 °F /  13.2 °C 29.87in /  1011.4hPa NW 4.0mph /  6.4km/h 12.0mph /  19.3km/h 55% 0.00in /  0mm
14:30 73.2 °F /  22.9 °C 56.1 °F /  13.4 °C 29.87in /  1011.4hPa WNW 4.0mph /  6.4km/h 11.0mph /  17.7km/h 55% 0.00in /  0mm
14:35 72.8 °F /  22.7 °C 54.2 °F /  12.3 °C 29.86in /  1011.1hPa NW 3.0mph /  4.8km/h 11.0mph /  17.7km/h 52% 0.00in /  0mm
14:40 73.1 °F /  22.8 °C 55.5 °F /  13.1 °C 29.86in /  1011.1hPa Calm   11.0mph /  17.7km/h 54% 0.00in /  0mm
14:45 73.2 °F /  22.9 °C 55.6 °F /  13.1 °C 29.86in /  1011.1hPa NW 4.0mph /  6.4km/h 9.0mph /  14.5km/h 54% 0.00in /  0mm
14:50 73.7 °F /  23.2 °C 59.0 °F /  15 °C 29.86in /  1011.1hPa NW 1.0mph /  1.6km/h 9.0mph /  14.5km/h 60% 0.00in /  0mm
14:55 73.8 °F /  23.2 °C 56.1 °F /  13.4 °C 29.86in /  1011.1hPa NNE 2.0mph /  3.2km/h 9.0mph /  14.5km/h 54% 0.00in /  0mm
15:00 73.9 °F /  23.3 °C 55.7 °F /  13.2 °C 29.87in /  1011.4hPa NNE 1.0mph /  1.6km/h 9.0mph /  14.5km/h 53% 0.00in /  0mm
15:05 73.9 °F /  23.3 °C 53.0 °F /  11.7 °C 29.86in /  1011.1hPa NNE 1.0mph /  1.6km/h 9.0mph /  14.5km/h 48% 0.00in /  0mm
15:10 73.9 °F /  23.3 °C 56.2 °F /  13.4 °C 29.86in /  1011.1hPa NNW 1.0mph /  1.6km/h 8.0mph /  12.9km/h 54% 0.00in /  0mm
15:15 73.9 °F /  23.3 °C 55.2 °F /  12.9 °C 29.86in /  1011.1hPa Calm   8.0mph /  12.9km/h 52% 0.00in /  0mm
15:20 74.0 °F /  23.3 °C 54.2 °F /  12.3 °C 29.86in /  1011.1hPa NE 3.0mph /  4.8km/h 11.0mph /  17.7km/h 50% 0.00in /  0mm
15:25 74.0 °F /  23.3 °C 55.8 °F /  13.2 °C 29.86in /  1011.1hPa NNW 1.0mph /  1.6km/h 11.0mph /  17.7km/h 53% 0.00in /  0mm
15:30 74.0 °F /  23.3 °C 53.7 °F /  12.1 °C 29.86in /  1011.1hPa NNE 1.0mph /  1.6km/h 10.0mph /  16.1km/h 49% 0.00in /  0mm
15:35 73.4 °F /  23 °C 54.7 °F /  12.6 °C 29.86in /  1011.1hPa Calm   10.0mph /  16.1km/h 52% 0.00in /  0mm
15:40 73.4 °F /  23 °C 56.3 °F /  13.5 °C 29.86in /  1011.1hPa Calm   8.0mph /  12.9km/h 55% 0.00in /  0mm
15:45 73.9 °F /  23.3 °C 54.7 °F /  12.6 °C 29.85in /  1010.7hPa North 2.0mph /  3.2km/h 8.0mph /  12.9km/h 51% 0.00in /  0mm
15:50 73.9 °F /  23.3 °C 51.8 °F /  11 °C 29.86in /  1011.1hPa NNE 2.0mph /  3.2km/h 9.0mph /  14.5km/h 46% 0.00in /  0mm
15:55 73.9 °F /  23.3 °C 54.7 °F /  12.6 °C 29.85in /  1010.7hPa North 2.0mph /  3.2km/h 11.0mph /  17.7km/h 51% 0.00in /  0mm
16:00 73.9 °F /  23.3 °C 55.2 °F /  12.9 °C 29.85in /  1010.7hPa WNW 1.0mph /  1.6km/h 11.0mph /  17.7km/h 52% 0.00in /  0mm
16:05 74.4 °F /  23.6 °C 54.6 °F /  12.6 °C 29.86in /  1011.1hPa Calm   7.0mph /  11.3km/h 50% 0.00in /  0mm
16:10 74.8 °F /  23.8 °C 54.4 °F /  12.4 °C 29.86in /  1011.1hPa Calm   3.0mph /  4.8km/h 49% 0.00in /  0mm
16:15 75.2 °F /  24 °C 54.8 °F /  12.7 °C 29.86in /  1011.1hPa Calm   4.0mph /  6.4km/h 49% 0.00in /  0mm
16:20 75.1 °F /  23.9 °C 54.1 °F /  12.3 °C 29.86in /  1011.1hPa Calm   6.0mph /  9.7km/h 48% 0.00in /  0mm
16:25 74.8 °F /  23.8 °C 53.8 °F /  12.1 °C 29.86in /  1011.1hPa NNE 1.0mph /  1.6km/h 6.0mph /  9.7km/h 48% 0.00in /  0mm
16:30 74.9 °F /  23.8 °C 52.2 °F /  11.2 °C 29.86in /  1011.1hPa Calm   6.0mph /  9.7km/h 45% 0.00in /  0mm
16:40 75.1 °F /  23.9 °C 56.8 °F /  13.8 °C 29.86in /  1011.1hPa Calm   9.0mph /  14.5km/h 53% 0.00in /  0mm
16:45 75.3 °F /  24.1 °C 54.3 °F /  12.4 °C 29.86in /  1011.1hPa Calm   7.0mph /  11.3km/h 48% 0.00in /  0mm
16:50 75.1 °F /  23.9 °C 50.5 °F /  10.3 °C 29.85in /  1010.7hPa NNE 1.0mph /  1.6km/h 6.0mph /  9.7km/h 42% 0.00in /  0mm
16:55 74.9 °F /  23.8 °C 50.9 °F /  10.5 °C 29.86in /  1011.1hPa WNW 3.0mph /  4.8km/h 9.0mph /  14.5km/h 43% 0.00in /  0mm
17:00 74.8 °F /  23.8 °C 53.8 °F /  12.1 °C 29.85in /  1010.7hPa Calm   9.0mph /  14.5km/h 48% 0.00in /  0mm
17:05 74.8 °F /  23.8 °C 52.7 °F /  11.5 °C 29.85in /  1010.7hPa NW 1.0mph /  1.6km/h 5.0mph /  8km/h 46% 0.00in /  0mm
17:10 74.9 °F /  23.8 °C 53.9 °F /  12.2 °C 29.85in /  1010.7hPa NW 1.0mph /  1.6km/h 5.0mph /  8km/h 48% 0.00in /  0mm
17:15 74.8 °F /  23.8 °C 52.7 °F /  11.5 °C 29.84in /  1010.4hPa Calm   7.0mph /  11.3km/h 46% 0.00in /  0mm
17:20 74.8 °F /  23.8 °C 53.8 °F /  12.1 °C 29.84in /  1010.4hPa Calm   7.0mph /  11.3km/h 48% 0.00in /  0mm
17:25 75.0 °F /  23.9 °C 52.2 °F /  11.2 °C 29.84in /  1010.4hPa NW 1.0mph /  1.6km/h 8.0mph /  12.9km/h 45% 0.00in /  0mm
17:30 74.8 °F /  23.8 °C 56.5 °F /  13.6 °C 29.84in /  1010.4hPa Calm   8.0mph /  12.9km/h 53% 0.00in /  0mm
17:35 74.7 °F /  23.7 °C 53.7 °F /  12.1 °C 29.84in /  1010.4hPa Calm   5.0mph /  8km/h 48% 0.00in /  0mm
17:40 74.5 °F /  23.6 °C 51.8 °F /  11 °C 29.84in /  1010.4hPa North 1.0mph /  1.6km/h 6.0mph /  9.7km/h 45% 0.00in /  0mm
17:45 74.3 °F /  23.5 °C 53.4 °F /  11.9 °C 29.84in /  1010.4hPa NNE 1.0mph /  1.6km/h 6.0mph /  9.7km/h 48% 0.00in /  0mm
17:50 74.2 °F /  23.4 °C 53.3 °F /  11.8 °C 29.84in /  1010.4hPa Calm   6.0mph /  9.7km/h 48% 0.00in /  0mm
17:55 74.2 °F /  23.4 °C 53.3 °F /  11.8 °C 29.84in /  1010.4hPa Calm   6.0mph /  9.7km/h 48% 0.00in /  0mm
18:00 74.0 °F /  23.3 °C 51.9 °F /  11.1 °C 29.84in /  1010.4hPa Calm   5.0mph /  8km/h 46% 0.00in /  0mm
18:10 73.3 °F /  22.9 °C 50.7 °F /  10.4 °C 29.84in /  1010.4hPa NNE 1.0mph /  1.6km/h 6.0mph /  9.7km/h 45% 0.00in /  0mm
18:15 73.1 °F /  22.8 °C 52.3 °F /  11.3 °C 29.84in /  1010.4hPa Calm   6.0mph /  9.7km/h 48% 0.00in /  0mm
18:20 73.0 °F /  22.8 °C 53.8 °F /  12.1 °C 29.84in /  1010.4hPa Calm   5.0mph /  8km/h 51% 0.00in /  0mm
18:25 72.7 °F /  22.6 °C 53.0 °F /  11.7 °C 29.84in /  1010.4hPa Calm   3.0mph /  4.8km/h 50% 0.00in /  0mm
18:30 72.6 °F /  22.6 °C 50.7 °F /  10.4 °C 29.84in /  1010.4hPa Calm   3.0mph /  4.8km/h 46% 0.00in /  0mm
18:35 72.4 °F /  22.4 °C 51.1 °F /  10.6 °C 29.84in /  1010.4hPa Calm   4.0mph /  6.4km/h 47% 0.00in /  0mm
18:40 72.3 °F /  22.4 °C 53.2 °F /  11.8 °C 29.84in /  1010.4hPa Calm   4.0mph /  6.4km/h 51% 0.00in /  0mm
18:45 72.0 °F /  22.2 °C 50.1 °F /  10.1 °C 29.84in /  1010.4hPa NNE 1.0mph /  1.6km/h 4.0mph /  6.4km/h 46% 0.00in /  0mm
18:50 71.5 °F /  21.9 °C 50.8 °F /  10.4 °C 29.84in /  1010.4hPa Calm   4.0mph /  6.4km/h 48% 0.00in /  0mm
18:55 71.3 °F /  21.8 °C 51.2 °F /  10.7 °C 29.84in /  1010.4hPa Calm   4.0mph /  6.4km/h 49% 0.00in /  0mm
19:00 71.1 °F /  21.7 °C 55.1 °F /  12.8 °C 29.85in /  1010.7hPa Calm   4.0mph /  6.4km/h 57% 0.00in /  0mm
19:05 70.7 °F /  21.5 °C 52.2 °F /  11.2 °C 29.84in /  1010.4hPa Calm   6.0mph /  9.7km/h 52% 0.00in /  0mm
19:10 70.4 °F /  21.3 °C 51.4 °F /  10.8 °C 29.84in /  1010.4hPa NNE 1.0mph /  1.6km/h 6.0mph /  9.7km/h 51% 0.00in /  0mm
19:15 70.2 °F /  21.2 °C 52.3 °F /  11.3 °C 29.84in /  1010.4hPa NE 1.0mph /  1.6km/h 4.0mph /  6.4km/h 53% 0.00in /  0mm
19:20 69.9 °F /  21.1 °C 51.5 °F /  10.8 °C 29.84in /  1010.4hPa NE 1.0mph /  1.6km/h 5.0mph /  8km/h 52% 0.00in /  0mm
19:30 69.1 °F /  20.6 °C 53.7 °F /  12.1 °C 29.84in /  1010.4hPa Calm   1.0mph /  1.6km/h 58% 0.00in /  0mm
19:35 68.7 °F /  20.4 °C 52.9 °F /  11.6 °C 29.84in /  1010.4hPa Calm   1.0mph /  1.6km/h 57% 0.00in /  0mm
19:40 68.1 °F /  20.1 °C 52.8 °F /  11.6 °C 29.84in /  1010.4hPa Calm   1.0mph /  1.6km/h 58% 0.00in /  0mm
19:45 67.6 °F /  19.8 °C 52.8 °F /  11.6 °C 29.85in /  1010.7hPa Calm     59% 0.00in /  0mm
19:50 67.2 °F /  19.6 °C 55.0 °F /  12.8 °C 29.85in /  1010.7hPa Calm     65% 0.00in /  0mm
19:55 66.7 °F /  19.3 °C 53.7 °F /  12.1 °C 29.85in /  1010.7hPa Calm     63% 0.00in /  0mm
20:00 66.3 °F /  19.1 °C 55.8 °F /  13.2 °C 29.85in /  1010.7hPa Calm     69% 0.00in /  0mm
20:05 65.6 °F /  18.7 °C 54.4 °F /  12.4 °C 29.85in /  1010.7hPa Calm     67% 0.00in /  0mm
20:10 64.9 °F /  18.3 °C 53.7 °F /  12.1 °C 29.85in /  1010.7hPa Calm     67% 0.00in /  0mm
20:15 64.0 °F /  17.8 °C 54.0 °F /  12.2 °C 29.85in /  1010.7hPa Calm     70% 0.00in /  0mm
20:20 63.0 °F /  17.2 °C 52.7 °F /  11.5 °C 29.85in /  1010.7hPa Calm     69% 0.00in /  0mm
20:25 61.9 °F /  16.6 °C 52.4 °F /  11.3 °C 29.85in /  1010.7hPa Calm     71% 0.00in /  0mm
20:30 60.9 °F /  16.1 °C 52.2 °F /  11.2 °C 29.86in /  1011.1hPa Calm     73% 0.00in /  0mm
20:35 60.0 °F /  15.6 °C 51.7 °F /  10.9 °C 29.86in /  1011.1hPa Calm     74% 0.00in /  0mm
20:40 59.0 °F /  15 °C 51.1 °F /  10.6 °C 29.86in /  1011.1hPa Calm     75% 0.00in /  0mm
20:45 58.3 °F /  14.6 °C 50.8 °F /  10.4 °C 29.86in /  1011.1hPa Calm     76% 0.00in /  0mm
20:50 57.5 °F /  14.2 °C 50.4 °F /  10.2 °C 29.86in /  1011.1hPa Calm     77% 0.00in /  0mm
20:55 56.9 °F /  13.8 °C 50.5 °F /  10.3 °C 29.86in /  1011.1hPa Calm     79% 0.00in /  0mm
21:00 56.3 °F /  13.5 °C 50.2 °F /  10.1 °C 29.86in /  1011.1hPa Calm     80% 0.00in /  0mm
21:05 55.9 °F /  13.3 °C 50.2 °F /  10.1 °C 29.86in /  1011.1hPa Calm     81% 0.00in /  0mm
21:10 55.4 °F /  13 °C 49.3 °F /  9.6 °C 29.86in /  1011.1hPa Calm     80% 0.00in /  0mm
21:15 55.0 °F /  12.8 °C 49.3 °F /  9.6 °C 29.86in /  1011.1hPa Calm     81% 0.00in /  0mm
21:20 54.8 °F /  12.7 °C 49.4 °F /  9.7 °C 29.86in /  1011.1hPa Calm     82% 0.00in /  0mm
21:25 54.6 °F /  12.6 °C 49.2 °F /  9.6 °C 29.87in /  1011.4hPa Calm     82% 0.00in /  0mm
21:30 54.3 °F /  12.4 °C 49.3 °F /  9.6 °C 29.87in /  1011.4hPa Calm     83% 0.00in /  0mm
21:35 54.1 °F /  12.3 °C 48.7 °F /  9.3 °C 29.87in /  1011.4hPa Calm     82% 0.00in /  0mm
21:40 53.9 °F /  12.2 °C 48.9 °F /  9.4 °C 29.86in /  1011.1hPa Calm     83% 0.00in /  0mm
21:45 53.7 °F /  12.1 °C 48.7 °F /  9.3 °C 29.86in /  1011.1hPa Calm     83% 0.00in /  0mm
21:50 53.5 °F /  11.9 °C 48.5 °F /  9.2 °C 29.86in /  1011.1hPa Calm     83% 0.00in /  0mm
21:55 53.4 °F /  11.9 °C 48.4 °F /  9.1 °C 29.86in /  1011.1hPa Calm     83% 0.00in /  0mm
22:00 53.3 °F /  11.8 °C 48.3 °F /  9.1 °C 29.86in /  1011.1hPa Calm     83% 0.00in /  0mm
22:05 53.2 °F /  11.8 °C 48.5 °F /  9.2 °C 29.87in /  1011.4hPa Calm     84% 0.00in /  0mm
22:10 53.2 °F /  11.8 °C 48.5 °F /  9.2 °C 29.87in /  1011.4hPa Calm     84% 0.00in /  0mm
22:15 53.4 °F /  11.9 °C 49.0 °F /  9.4 °C 29.87in /  1011.4hPa Calm     85% 0.00in /  0mm
22:20 53.5 °F /  11.9 °C 49.1 °F /  9.5 °C 29.87in /  1011.4hPa Calm     85% 0.00in /  0mm
22:25 53.7 °F /  12.1 °C 49.6 °F /  9.8 °C 29.87in /  1011.4hPa Calm     86% 0.00in /  0mm
22:30 53.8 °F /  12.1 °C 49.4 °F /  9.7 °C 29.87in /  1011.4hPa Calm     85% 0.00in /  0mm
22:35 53.9 °F /  12.2 °C 49.8 °F /  9.9 °C 29.87in /  1011.4hPa Calm     86% 0.00in /  0mm
22:40 54.0 °F /  12.2 °C 49.6 °F /  9.8 °C 29.87in /  1011.4hPa Calm     85% 0.00in /  0mm
22:45 54.0 °F /  12.2 °C 49.6 °F /  9.8 °C 29.87in /  1011.4hPa Calm     85% 0.00in /  0mm
22:50 54.0 °F /  12.2 °C 49.6 °F /  9.8 °C 29.87in /  1011.4hPa Calm     85% 0.00in /  0mm
22:55 54.0 °F /  12.2 °C 49.6 °F /  9.8 °C 29.87in /  1011.4hPa Calm     85% 0.00in /  0mm
23:00 54.0 °F /  12.2 °C 49.6 °F /  9.8 °C 29.87in /  1011.4hPa Calm     85% 0.00in /  0mm
23:05 54.2 °F /  12.3 °C 49.8 °F /  9.9 °C 29.87in /  1011.4hPa Calm     85% 0.00in /  0mm
23:10 54.2 °F /  12.3 °C 49.8 °F /  9.9 °C 29.87in /  1011.4hPa Calm     85% 0.00in /  0mm
23:15 54.3 °F /  12.4 °C 50.2 °F /  10.1 °C 29.87in /  1011.4hPa Calm     86% 0.00in /  0mm
23:20 54.4 °F /  12.4 °C 50.3 °F /  10.2 °C 29.87in /  1011.4hPa Calm     86% 0.00in /  0mm
23:25 54.5 °F /  12.5 °C 50.4 °F /  10.2 °C 29.87in /  1011.4hPa Calm     86% 0.00in /  0mm
23:30 54.6 °F /  12.6 °C 50.5 °F /  10.3 °C 29.87in /  1011.4hPa Calm     86% 0.00in /  0mm
23:35 54.7 °F /  12.6 °C 50.6 °F /  10.3 °C 29.87in /  1011.4hPa Calm     86% 0.00in /  0mm
23:40 54.8 °F /  12.7 °C 51.0 °F /  10.6 °C 29.87in /  1011.4hPa Calm     87% 0.00in /  0mm
23:45 54.9 °F /  12.7 °C 50.8 °F /  10.4 °C 29.86in /  1011.1hPa Calm     86% 0.00in /  0mm
23:50 54.9 °F /  12.7 °C 50.8 °F /  10.4 °C 29.86in /  1011.1hPa Calm     86% 0.00in /  0mm
23:55 54.8 °F /  12.7 °C 50.7 °F /  10.4 °C 29.86in /  1011.1hPa Calm     86% 0.00in /  0mm
Westford Weather
Compliments of Weather Underground

 
 
Current Radar Loop:

Copyright © WestfordWeather.net 2007-2014. All rights reserved.